sensor_id;sensor_type;location;lat;lon;timestamp;pressure;altitude;pressure_sealevel;temperature;humidity
72636;BME280;60679;48.888;15.544;2022-11-20T00:00:08;95746.69;;;-2.80;87.47
72636;BME280;60679;48.888;15.544;2022-11-20T00:02:33;95755.59;;;-2.81;87.44
72636;BME280;60679;48.888;15.544;2022-11-20T00:04:59;95751.13;;;-2.80;87.52
72636;BME280;60679;48.888;15.544;2022-11-20T00:07:24;95748.50;;;-2.80;87.33
72636;BME280;60679;48.888;15.544;2022-11-20T00:09:49;95759.88;;;-2.80;87.47
72636;BME280;60679;48.888;15.544;2022-11-20T00:12:15;95751.81;;;-2.78;87.40
72636;BME280;60679;48.888;15.544;2022-11-20T00:14:41;95749.16;;;-2.78;87.41
72636;BME280;60679;48.888;15.544;2022-11-20T00:17:06;95744.88;;;-2.79;87.46
72636;BME280;60679;48.888;15.544;2022-11-20T00:19:35;95750.16;;;-2.79;87.32
72636;BME280;60679;48.888;15.544;2022-11-20T00:22:00;95743.22;;;-2.80;87.48
72636;BME280;60679;48.888;15.544;2022-11-20T00:24:25;95749.16;;;-2.78;87.63
72636;BME280;60679;48.888;15.544;2022-11-20T00:26:51;95747.34;;;-2.78;87.48
72636;BME280;60679;48.888;15.544;2022-11-20T00:29:16;95741.75;;;-2.75;87.49
72636;BME280;60679;48.888;15.544;2022-11-20T00:31:41;95743.56;;;-2.75;87.39
72636;BME280;60679;48.888;15.544;2022-11-20T00:34:07;95752.16;;;-2.73;87.55
72636;BME280;60679;48.888;15.544;2022-11-20T00:36:34;95754.00;;;-2.74;87.35
72636;BME280;60679;48.888;15.544;2022-11-20T00:38:59;95743.44;;;-2.74;87.43
72636;BME280;60679;48.888;15.544;2022-11-20T00:41:26;95733.66;;;-2.73;87.47
72636;BME280;60679;48.888;15.544;2022-11-20T00:43:53;95737.13;;;-2.73;87.39
72636;BME280;60679;48.888;15.544;2022-11-20T00:46:25;95744.41;;;-2.75;87.52
72636;BME280;60679;48.888;15.544;2022-11-20T00:48:51;95735.50;;;-2.74;87.43
72636;BME280;60679;48.888;15.544;2022-11-20T00:51:18;95732.88;;;-2.74;87.63
72636;BME280;60679;48.888;15.544;2022-11-20T00:53:44;95739.78;;;-2.73;87.39
72636;BME280;60679;48.888;15.544;2022-11-20T00:56:15;95728.25;;;-2.72;87.59
72636;BME280;60679;48.888;15.544;2022-11-20T00:58:42;95728.38;;;-2.73;87.49
72636;BME280;60679;48.888;15.544;2022-11-20T01:03:40;95733.84;;;-2.75;87.35
72636;BME280;60679;48.888;15.544;2022-11-20T01:06:12;95725.25;;;-2.77;87.45
72636;BME280;60679;48.888;15.544;2022-11-20T01:08:38;95742.91;;;-2.77;87.59
72636;BME280;60679;48.888;15.544;2022-11-20T01:11:13;95733.00;;;-2.75;87.33
72636;BME280;60679;48.888;15.544;2022-11-20T01:13:39;95734.81;;;-2.76;87.41
72636;BME280;60679;48.888;15.544;2022-11-20T01:18:44;95733.66;;;-2.73;87.44
72636;BME280;60679;48.888;15.544;2022-11-20T01:21:25;95727.59;;;-2.74;87.44
72636;BME280;60679;48.888;15.544;2022-11-20T01:23:51;95729.53;;;-2.76;87.38
72636;BME280;60679;48.888;15.544;2022-11-20T01:26:22;95727.72;;;-2.75;87.43
72636;BME280;60679;48.888;15.544;2022-11-20T01:28:49;95717.97;;;-2.75;87.49
72636;BME280;60679;48.888;15.544;2022-11-20T01:31:23;95704.59;;;-2.73;87.45
72636;BME280;60679;48.888;15.544;2022-11-20T01:33:51;95710.72;;;-2.73;87.38
72636;BME280;60679;48.888;15.544;2022-11-20T01:36:17;95713.22;;;-2.71;87.55
72636;BME280;60679;48.888;15.544;2022-11-20T01:38:43;95721.28;;;-2.73;87.38
72636;BME280;60679;48.888;15.544;2022-11-20T01:41:10;95709.22;;;-2.75;87.52
72636;BME280;60679;48.888;15.544;2022-11-20T01:43:36;95717.00;;;-2.74;87.38
72636;BME280;60679;48.888;15.544;2022-11-20T01:48:44;95721.28;;;-2.73;87.50
72636;BME280;60679;48.888;15.544;2022-11-20T01:51:29;95722.78;;;-2.70;87.52
72636;BME280;60679;48.888;15.544;2022-11-20T01:54:00;95727.94;;;-2.69;87.46
72636;BME280;60679;48.888;15.544;2022-11-20T01:56:28;95720.66;;;-2.67;87.45
72636;BME280;60679;48.888;15.544;2022-11-20T01:58:58;95710.94;;;-2.66;87.43
72636;BME280;60679;48.888;15.544;2022-11-20T02:01:26;95729.56;;;-2.68;87.45
72636;BME280;60679;48.888;15.544;2022-11-20T02:03:54;95729.06;;;-2.71;87.42
72636;BME280;60679;48.888;15.544;2022-11-20T02:06:32;95720.31;;;-2.72;87.44
72636;BME280;60679;48.888;15.544;2022-11-20T02:09:00;95709.59;;;-2.70;87.42
72636;BME280;60679;48.888;15.544;2022-11-20T02:11:25;95697.06;;;-2.68;87.79
72636;BME280;60679;48.888;15.544;2022-11-20T02:13:51;95709.13;;;-2.66;87.40
72636;BME280;60679;48.888;15.544;2022-11-20T02:16:29;95710.63;;;-2.63;87.49
72636;BME280;60679;48.888;15.544;2022-11-20T02:18:57;95728.13;;;-2.62;87.38
72636;BME280;60679;48.888;15.544;2022-11-20T02:21:39;95729.97;;;-2.63;87.32
72636;BME280;60679;48.888;15.544;2022-11-20T02:24:18;95734.22;;;-2.62;87.33
72636;BME280;60679;48.888;15.544;2022-11-20T02:26:53;95731.44;;;-2.60;87.48
72636;BME280;60679;48.888;15.544;2022-11-20T02:29:32;95725.16;;;-2.59;87.35
72636;BME280;60679;48.888;15.544;2022-11-20T02:32:00;95712.97;;;-2.60;87.32
72636;BME280;60679;48.888;15.544;2022-11-20T02:34:26;95710.31;;;-2.60;87.26
72636;BME280;60679;48.888;15.544;2022-11-20T02:36:52;95711.16;;;-2.60;87.22
72636;BME280;60679;48.888;15.544;2022-11-20T02:39:19;95711.59;;;-2.64;87.04
72636;BME280;60679;48.888;15.544;2022-11-20T02:41:48;95723.00;;;-2.64;87.66
72636;BME280;60679;48.888;15.544;2022-11-20T02:44:16;95727.31;;;-2.63;87.47
72636;BME280;60679;48.888;15.544;2022-11-20T02:46:42;95729.78;;;-2.61;87.40
72636;BME280;60679;48.888;15.544;2022-11-20T02:49:07;95720.06;;;-2.61;87.27
72636;BME280;60679;48.888;15.544;2022-11-20T02:51:33;95736.56;;;-2.59;87.39
72636;BME280;60679;48.888;15.544;2022-11-20T02:53:58;95722.38;;;-2.58;87.33
72636;BME280;60679;48.888;15.544;2022-11-20T02:56:24;95725.53;;;-2.54;87.49
72636;BME280;60679;48.888;15.544;2022-11-20T02:58:49;95722.06;;;-2.55;87.53
72636;BME280;60679;48.888;15.544;2022-11-20T03:01:15;95723.72;;;-2.54;87.36
72636;BME280;60679;48.888;15.544;2022-11-20T03:03:40;95725.69;;;-2.56;87.73
72636;BME280;60679;48.888;15.544;2022-11-20T03:06:05;95720.56;;;-2.57;87.26
72636;BME280;60679;48.888;15.544;2022-11-20T03:08:31;95729.31;;;-2.57;87.36
72636;BME280;60679;48.888;15.544;2022-11-20T03:10:56;95718.91;;;-2.58;87.44
72636;BME280;60679;48.888;15.544;2022-11-20T03:13:22;95715.28;;;-2.57;87.40
72636;BME280;60679;48.888;15.544;2022-11-20T03:15:47;95721.38;;;-2.57;87.35
72636;BME280;60679;48.888;15.544;2022-11-20T03:18:12;95725.84;;;-2.57;87.55
72636;BME280;60679;48.888;15.544;2022-11-20T03:20:38;95722.22;;;-2.56;87.71
72636;BME280;60679;48.888;15.544;2022-11-20T03:23:04;95713.44;;;-2.57;87.31
72636;BME280;60679;48.888;15.544;2022-11-20T03:25:29;95707.50;;;-2.59;87.42
72636;BME280;60679;48.888;15.544;2022-11-20T03:27:55;95703.22;;;-2.60;87.57
72636;BME280;60679;48.888;15.544;2022-11-20T03:30:20;95710.44;;;-2.62;87.25
72636;BME280;60679;48.888;15.544;2022-11-20T03:32:46;95716.56;;;-2.61;87.49
72636;BME280;60679;48.888;15.544;2022-11-20T03:35:11;95713.09;;;-2.62;87.36
72636;BME280;60679;48.888;15.544;2022-11-20T03:37:37;95718.38;;;-2.62;87.40
72636;BME280;60679;48.888;15.544;2022-11-20T03:40:03;95716.56;;;-2.61;87.49
72636;BME280;60679;48.888;15.544;2022-11-20T03:42:31;95710.44;;;-2.62;87.43
72636;BME280;60679;48.888;15.544;2022-11-20T03:45:17;95705.16;;;-2.62;87.64
72636;BME280;60679;48.888;15.544;2022-11-20T03:47:43;95699.75;;;-2.60;87.35
72636;BME280;60679;48.888;15.544;2022-11-20T03:50:11;95710.44;;;-2.62;87.47
72636;BME280;60679;48.888;15.544;2022-11-20T03:52:40;95707.66;;;-2.60;87.45
72636;BME280;60679;48.888;15.544;2022-11-20T03:55:06;95714.59;;;-2.59;87.39
72636;BME280;60679;48.888;15.544;2022-11-20T03:57:32;95713.63;;;-2.58;87.45
72636;BME280;60679;48.888;15.544;2022-11-20T03:59:57;95721.38;;;-2.57;87.44
72636;BME280;60679;48.888;15.544;2022-11-20T04:02:23;95717.75;;;-2.56;87.47
72636;BME280;60679;48.888;15.544;2022-11-20T04:04:48;95721.22;;;-2.55;87.50
72636;BME280;60679;48.888;15.544;2022-11-20T04:07:14;95713.31;;;-2.55;87.54
72636;BME280;60679;48.888;15.544;2022-11-20T04:09:39;95713.13;;;-2.54;87.25
72636;BME280;60679;48.888;15.544;2022-11-20T04:12:04;95721.06;;;-2.54;87.40
72636;BME280;60679;48.888;15.544;2022-11-20T04:14:30;95722.72;;;-2.53;87.38
72636;BME280;60679;48.888;15.544;2022-11-20T04:16:55;95733.13;;;-2.51;87.56
72636;BME280;60679;48.888;15.544;2022-11-20T04:19:20;95726.72;;;-2.49;87.50
72636;BME280;60679;48.888;15.544;2022-11-20T04:21:46;95724.88;;;-2.48;87.74
72636;BME280;60679;48.888;15.544;2022-11-20T04:24:11;95731.19;;;-2.49;87.44
72636;BME280;60679;48.888;15.544;2022-11-20T04:26:37;95718.81;;;-2.49;87.38
72636;BME280;60679;48.888;15.544;2022-11-20T04:29:03;95716.97;;;-2.48;87.36
72636;BME280;60679;48.888;15.544;2022-11-20T04:31:30;95714.31;;;-2.48;87.53
72636;BME280;60679;48.888;15.544;2022-11-20T04:34:00;95716.81;;;-2.47;87.51
72636;BME280;60679;48.888;15.544;2022-11-20T04:36:27;95709.88;;;-2.48;87.39
72636;BME280;60679;48.888;15.544;2022-11-20T04:38:55;95708.22;;;-2.49;87.45
72636;BME280;60679;48.888;15.544;2022-11-20T04:41:23;95709.22;;;-2.50;87.39
72636;BME280;60679;48.888;15.544;2022-11-20T04:43:50;95706.56;;;-2.50;87.52
72636;BME280;60679;48.888;15.544;2022-11-20T04:46:20;95707.53;;;-2.51;87.44
72636;BME280;60679;48.888;15.544;2022-11-20T04:48:47;95711.84;;;-2.50;87.54
72636;BME280;60679;48.888;15.544;2022-11-20T04:51:13;95713.53;;;-2.49;87.57
72636;BME280;60679;48.888;15.544;2022-11-20T04:53:38;95712.50;;;-2.48;87.38
72636;BME280;60679;48.888;15.544;2022-11-20T04:56:08;95715.31;;;-2.49;87.46
72636;BME280;60679;48.888;15.544;2022-11-20T04:58:38;95711.00;;;-2.50;87.55
72636;BME280;60679;48.888;15.544;2022-11-20T05:01:15;95700.31;;;-2.49;87.71
72636;BME280;60679;48.888;15.544;2022-11-20T05:03:43;95706.56;;;-2.50;87.54
72636;BME280;60679;48.888;15.544;2022-11-20T05:06:13;95703.91;;;-2.50;87.50
72636;BME280;60679;48.888;15.544;2022-11-20T05:08:39;95694.19;;;-2.49;87.48
72636;BME280;60679;48.888;15.544;2022-11-20T05:11:10;95698.47;;;-2.48;87.57
72636;BME280;60679;48.888;15.544;2022-11-20T05:13:37;95698.63;;;-2.50;87.59
72636;BME280;60679;48.888;15.544;2022-11-20T05:16:04;95687.09;;;-2.49;87.46
72636;BME280;60679;48.888;15.544;2022-11-20T05:18:30;95682.78;;;-2.50;87.43
72636;BME280;60679;48.888;15.544;2022-11-20T05:20:56;95683.63;;;-2.49;87.48
72636;BME280;60679;48.888;15.544;2022-11-20T05:23:22;95681.13;;;-2.51;87.39
72636;BME280;60679;48.888;15.544;2022-11-20T05:25:47;95674.69;;;-2.48;87.48
72636;BME280;60679;48.888;15.544;2022-11-20T05:28:13;95677.19;;;-2.47;87.71
72636;BME280;60679;48.888;15.544;2022-11-20T05:30:39;95669.91;;;-2.45;87.40
72636;BME280;60679;48.888;15.544;2022-11-20T05:33:04;95669.78;;;-2.43;87.50
72636;BME280;60679;48.888;15.544;2022-11-20T05:35:29;95663.78;;;-2.45;87.48
72636;BME280;60679;48.888;15.544;2022-11-20T05:37:55;95667.13;;;-2.43;87.54
72636;BME280;60679;48.888;15.544;2022-11-20T05:40:23;95668.09;;;-2.44;87.36
72636;BME280;60679;48.888;15.544;2022-11-20T05:42:48;95671.41;;;-2.42;87.51
72636;BME280;60679;48.888;15.544;2022-11-20T05:45:16;95678.34;;;-2.41;87.47
72636;BME280;60679;48.888;15.544;2022-11-20T05:47:41;95685.63;;;-2.43;87.51
72636;BME280;60679;48.888;15.544;2022-11-20T05:50:07;95689.41;;;-2.46;87.50
72636;BME280;60679;48.888;15.544;2022-11-20T05:52:33;95691.22;;;-2.46;87.61
72636;BME280;60679;48.888;15.544;2022-11-20T05:54:59;95692.72;;;-2.44;87.62
72636;BME280;60679;48.888;15.544;2022-11-20T05:57:24;95684.94;;;-2.45;87.46
72636;BME280;60679;48.888;15.544;2022-11-20T05:59:49;95690.41;;;-2.47;87.67
72636;BME280;60679;48.888;15.544;2022-11-20T06:02:15;95689.41;;;-2.46;87.53
72636;BME280;60679;48.888;15.544;2022-11-20T06:04:40;95679.66;;;-2.45;87.52
72636;BME280;60679;48.888;15.544;2022-11-20T06:07:06;95681.97;;;-2.42;87.58
72636;BME280;60679;48.888;15.544;2022-11-20T06:09:31;95692.41;;;-2.41;87.42
72636;BME280;60679;48.888;15.544;2022-11-20T06:11:57;95695.06;;;-2.41;87.53
72636;BME280;60679;48.888;15.544;2022-11-20T06:14:22;95693.91;;;-2.38;87.43
72636;BME280;60679;48.888;15.544;2022-11-20T06:16:47;95691.09;;;-2.37;87.37
72636;BME280;60679;48.888;15.544;2022-11-20T06:19:13;95692.56;;;-2.34;87.42
72636;BME280;60679;48.888;15.544;2022-11-20T06:21:38;95687.16;;;-2.33;87.42
72636;BME280;60679;48.888;15.544;2022-11-20T06:24:04;95676.91;;;-2.27;87.33
72636;BME280;60679;48.888;15.544;2022-11-20T06:26:30;95668.66;;;-2.24;87.35
72636;BME280;60679;48.888;15.544;2022-11-20T06:28:55;95675.31;;;-2.20;87.22
72636;BME280;60679;48.888;15.544;2022-11-20T06:31:22;95676.09;;;-2.20;87.14
72636;BME280;60679;48.888;15.544;2022-11-20T06:33:49;95679.44;;;-2.18;87.16
72636;BME280;60679;48.888;15.544;2022-11-20T06:36:16;95679.78;;;-2.13;87.23
72636;BME280;60679;48.888;15.544;2022-11-20T06:38:42;95683.91;;;-2.10;87.18
72636;BME280;60679;48.888;15.544;2022-11-20T06:41:11;95679.16;;;-2.07;87.06
72636;BME280;60679;48.888;15.544;2022-11-20T06:43:37;95681.94;;;-2.00;86.91
72636;BME280;60679;48.888;15.544;2022-11-20T06:46:03;95695.53;;;-1.95;86.87
72636;BME280;60679;48.888;15.544;2022-11-20T06:48:29;95698.53;;;-1.90;86.83
72636;BME280;60679;48.888;15.544;2022-11-20T06:50:55;95690.09;;;-1.86;86.65
72636;BME280;60679;48.888;15.544;2022-11-20T06:53:21;95688.16;;;-1.76;86.51
72636;BME280;60679;48.888;15.544;2022-11-20T06:55:49;95702.22;;;-1.67;86.28
72636;BME280;60679;48.888;15.544;2022-11-20T06:58:15;95698.09;;;-1.61;86.23
72636;BME280;60679;48.888;15.544;2022-11-20T07:00:41;95717.09;;;-1.58;86.32
72636;BME280;60679;48.888;15.544;2022-11-20T07:03:08;95705.22;;;-1.54;86.25
72636;BME280;60679;48.888;15.544;2022-11-20T07:05:34;95706.56;;;-1.50;86.25
72636;BME280;60679;48.888;15.544;2022-11-20T07:08:00;95713.81;;;-1.44;86.17
72636;BME280;60679;48.888;15.544;2022-11-20T07:10:25;95708.88;;;-1.39;85.99
72636;BME280;60679;48.888;15.544;2022-11-20T07:12:54;95713.53;;;-1.33;85.98
72636;BME280;60679;48.888;15.544;2022-11-20T07:15:21;95710.88;;;-1.25;85.90
72636;BME280;60679;48.888;15.544;2022-11-20T07:17:47;95717.00;;;-1.16;85.67
72636;BME280;60679;48.888;15.544;2022-11-20T07:20:13;95724.94;;;-1.08;85.73
72636;BME280;60679;48.888;15.544;2022-11-20T07:22:39;95711.69;;;-1.00;85.27
72636;BME280;60679;48.888;15.544;2022-11-20T07:25:05;95720.28;;;-0.90;85.32
72636;BME280;60679;48.888;15.544;2022-11-20T07:27:31;95713.31;;;-0.83;85.12
72636;BME280;60679;48.888;15.544;2022-11-20T07:29:57;95705.53;;;-0.68;85.17
72636;BME280;60679;48.888;15.544;2022-11-20T07:32:25;95709.13;;;-0.53;84.84
72636;BME280;60679;48.888;15.544;2022-11-20T07:34:51;95722.22;;;-0.51;84.85
72636;BME280;60679;48.888;15.544;2022-11-20T07:37:16;95716.56;;;-0.48;84.61
72636;BME280;60679;48.888;15.544;2022-11-20T07:39:41;95723.69;;;-0.49;84.55
72636;BME280;60679;48.888;15.544;2022-11-20T07:42:07;95737.00;;;-0.65;84.40
72636;BME280;60679;48.888;15.544;2022-11-20T07:44:33;95727.53;;;-0.60;84.92
72636;BME280;60679;48.888;15.544;2022-11-20T07:46:58;95732.50;;;-0.48;85.03
72636;BME280;60679;48.888;15.544;2022-11-20T07:49:24;95739.91;;;-0.36;84.67
72636;BME280;60679;48.888;15.544;2022-11-20T07:51:52;95746.50;;;-0.24;84.42
72636;BME280;60679;48.888;15.544;2022-11-20T07:54:21;95737.88;;;-0.18;84.26
72636;BME280;60679;48.888;15.544;2022-11-20T07:56:47;95736.00;;;-0.09;84.16
72636;BME280;60679;48.888;15.544;2022-11-20T07:59:13;95734.13;;;0.08;83.75
72636;BME280;60679;48.888;15.544;2022-11-20T08:01:39;95728.53;;;0.33;83.30
72636;BME280;60679;48.888;15.544;2022-11-20T08:04:05;95717.69;;;0.66;82.81
72636;BME280;60679;48.888;15.544;2022-11-20T08:06:30;95718.38;;;0.90;82.41
72636;BME280;60679;48.888;15.544;2022-11-20T08:08:56;95716.88;;;1.25;81.56
72636;BME280;60679;48.888;15.544;2022-11-20T08:11:21;95709.25;;;1.89;80.13
72636;BME280;60679;48.888;15.544;2022-11-20T08:14:05;95706.97;;;2.51;79.35
72636;BME280;60679;48.888;15.544;2022-11-20T08:16:40;95703.84;;;2.68;79.45
72636;BME280;60679;48.888;15.544;2022-11-20T08:19:07;95695.56;;;2.78;79.41
72636;BME280;60679;48.888;15.544;2022-11-20T08:21:32;95703.09;;;2.74;79.68
72636;BME280;60679;48.888;15.544;2022-11-20T08:23:58;95718.88;;;2.90;79.49
72636;BME280;60679;48.888;15.544;2022-11-20T08:26:24;95722.75;;;2.52;80.28
72636;BME280;60679;48.888;15.544;2022-11-20T08:28:56;95726.69;;;2.06;80.74
72636;BME280;60679;48.888;15.544;2022-11-20T08:31:23;95713.09;;;1.57;80.90
72636;BME280;60679;48.888;15.544;2022-11-20T08:33:49;95714.59;;;1.89;80.59
72636;BME280;60679;48.888;15.544;2022-11-20T08:36:15;95715.75;;;2.15;79.52
72636;BME280;60679;48.888;15.544;2022-11-20T08:38:40;95716.94;;;2.27;79.21
72636;BME280;60679;48.888;15.544;2022-11-20T08:41:06;95701.09;;;2.76;78.25
72636;BME280;60679;48.888;15.544;2022-11-20T08:43:54;95706.97;;;3.14;77.48
72636;BME280;60679;48.888;15.544;2022-11-20T08:46:20;95695.75;;;4.56;74.44
72636;BME280;60679;48.888;15.544;2022-11-20T08:48:46;95692.84;;;4.51;75.94
72636;BME280;60679;48.888;15.544;2022-11-20T08:51:12;95700.22;;;4.42;76.21
72636;BME280;60679;48.888;15.544;2022-11-20T08:53:38;95704.69;;;4.29;76.47
72636;BME280;60679;48.888;15.544;2022-11-20T08:56:04;95694.00;;;4.29;76.74
72636;BME280;60679;48.888;15.544;2022-11-20T08:58:30;95693.34;;;4.20;76.98
72636;BME280;60679;48.888;15.544;2022-11-20T09:00:55;95692.41;;;4.00;77.13
72636;BME280;60679;48.888;15.544;2022-11-20T09:03:21;95693.66;;;4.04;77.25
72636;BME280;60679;48.888;15.544;2022-11-20T09:05:47;95685.41;;;3.99;77.45
72636;BME280;60679;48.888;15.544;2022-11-20T09:08:12;95691.75;;;3.91;77.22
72636;BME280;60679;48.888;15.544;2022-11-20T09:10:37;95691.25;;;3.81;77.48
72636;BME280;60679;48.888;15.544;2022-11-20T09:13:06;95684.75;;;3.84;77.45
72636;BME280;60679;48.888;15.544;2022-11-20T09:15:39;95687.75;;;3.74;77.67
72636;BME280;60679;48.888;15.544;2022-11-20T09:18:04;95693.25;;;3.66;77.55
72636;BME280;60679;48.888;15.544;2022-11-20T09:20:30;95689.75;;;3.66;77.58
72636;BME280;60679;48.888;15.544;2022-11-20T09:22:56;95696.59;;;3.75;77.14
72636;BME280;60679;48.888;15.544;2022-11-20T09:25:21;95696.81;;;3.80;77.08
72636;BME280;60679;48.888;15.544;2022-11-20T09:27:47;95689.03;;;3.85;77.21
72636;BME280;60679;48.888;15.544;2022-11-20T09:30:13;95688.25;;;3.91;77.22
72636;BME280;60679;48.888;15.544;2022-11-20T09:32:39;95687.63;;;3.89;77.20
72636;BME280;60679;48.888;15.544;2022-11-20T09:35:05;95696.31;;;3.97;77.28
72636;BME280;60679;48.888;15.544;2022-11-20T09:37:30;95685.13;;;4.22;76.81
72636;BME280;60679;48.888;15.544;2022-11-20T09:39:55;95684.63;;;4.52;75.84
72636;BME280;60679;48.888;15.544;2022-11-20T09:51:11;95681.88;;;5.26;74.77
72636;BME280;60679;48.888;15.544;2022-11-20T09:54:00;95680.66;;;5.02;75.17
72636;BME280;60679;48.888;15.544;2022-11-20T09:56:33;95677.34;;;5.07;75.32
72636;BME280;60679;48.888;15.544;2022-11-20T09:59:02;95676.75;;;5.05;75.35
72636;BME280;60679;48.888;15.544;2022-11-20T10:01:32;95677.34;;;4.94;75.36
72636;BME280;60679;48.888;15.544;2022-11-20T10:04:18;95678.47;;;4.58;76.16
72636;BME280;60679;48.888;15.544;2022-11-20T10:09:22;95672.56;;;4.16;76.96
72636;BME280;60679;48.888;15.544;2022-11-20T10:12:13;95661.69;;;4.24;76.50
72636;BME280;60679;48.888;15.544;2022-11-20T10:20:32;95649.13;;;4.98;75.45
72636;BME280;60679;48.888;15.544;2022-11-20T10:23:31;95662.09;;;5.14;75.12
72636;BME280;60679;48.888;15.544;2022-11-20T10:33:51;95651.84;;;5.04;75.72
72636;BME280;60679;48.888;15.544;2022-11-20T10:36:22;95650.97;;;4.84;75.98
72636;BME280;60679;48.888;15.544;2022-11-20T10:38:53;95651.31;;;4.55;76.33
72636;BME280;60679;48.888;15.544;2022-11-20T10:41:29;95643.47;;;4.47;76.34
72636;BME280;60679;48.888;15.544;2022-11-20T10:44:16;95645.16;;;4.61;76.13
72636;BME280;60679;48.888;15.544;2022-11-20T10:47:03;95642.94;;;4.78;76.13
72636;BME280;60679;48.888;15.544;2022-11-20T10:49:30;95643.56;;;4.86;75.78
72636;BME280;60679;48.888;15.544;2022-11-20T10:54:54;95638.84;;;5.01;75.92
72636;BME280;60679;48.888;15.544;2022-11-20T11:00:11;95636.78;;;4.97;75.75
72636;BME280;60679;48.888;15.544;2022-11-20T11:02:47;95633.09;;;5.04;75.40
72636;BME280;60679;48.888;15.544;2022-11-20T11:07:55;95632.88;;;4.93;75.96
72636;BME280;60679;48.888;15.544;2022-11-20T11:10:39;95635.75;;;4.78;76.35
72636;BME280;60679;48.888;15.544;2022-11-20T11:13:19;95634.47;;;4.61;76.71
72636;BME280;60679;48.888;15.544;2022-11-20T11:15:44;95629.69;;;4.43;76.33
72636;BME280;60679;48.888;15.544;2022-11-20T11:18:10;95623.69;;;4.28;76.74
72636;BME280;60679;48.888;15.544;2022-11-20T11:20:37;95624.34;;;4.43;76.73
72636;BME280;60679;48.888;15.544;2022-11-20T11:23:02;95624.97;;;4.52;76.65
72636;BME280;60679;48.888;15.544;2022-11-20T11:25:30;95620.91;;;4.69;76.44
72636;BME280;60679;48.888;15.544;2022-11-20T11:28:02;95614.19;;;5.19;75.53
72636;BME280;60679;48.888;15.544;2022-11-20T11:30:29;95607.75;;;5.46;75.40
72636;BME280;60679;48.888;15.544;2022-11-20T11:33:09;95617.22;;;5.49;75.41
72636;BME280;60679;48.888;15.544;2022-11-20T11:35:43;95608.59;;;5.40;75.94
72636;BME280;60679;48.888;15.544;2022-11-20T11:38:21;95602.00;;;5.36;76.01
72636;BME280;60679;48.888;15.544;2022-11-20T11:40:47;95588.13;;;5.65;75.44
72636;BME280;60679;48.888;15.544;2022-11-20T11:43:22;95593.09;;;5.62;75.36
72636;BME280;60679;48.888;15.544;2022-11-20T11:49:01;95594.72;;;7.88;70.45
72636;BME280;60679;48.888;15.544;2022-11-20T11:54:21;95586.56;;;7.77;71.58
72636;BME280;60679;48.888;15.544;2022-11-20T11:56:49;95587.72;;;9.24;68.45
72636;BME280;60679;48.888;15.544;2022-11-20T11:59:24;95582.66;;;11.17;64.97
72636;BME280;60679;48.888;15.544;2022-11-20T12:01:56;95585.91;;;11.19;65.92
72636;BME280;60679;48.888;15.544;2022-11-20T12:04:42;95579.44;;;9.49;69.69
72636;BME280;60679;48.888;15.544;2022-11-20T12:07:15;95590.22;;;8.55;70.75
72636;BME280;60679;48.888;15.544;2022-11-20T12:09:47;95590.63;;;7.86;71.94
72636;BME280;60679;48.888;15.544;2022-11-20T12:12:20;95595.06;;;7.74;71.76
72636;BME280;60679;48.888;15.544;2022-11-20T12:14:49;95592.34;;;7.13;73.09
72636;BME280;60679;48.888;15.544;2022-11-20T12:17:17;95595.00;;;6.57;74.58
72636;BME280;60679;48.888;15.544;2022-11-20T12:19:43;95600.50;;;6.30;74.89
72636;BME280;60679;48.888;15.544;2022-11-20T12:25:07;95596.34;;;5.83;75.67
72636;BME280;60679;48.888;15.544;2022-11-20T12:28:07;95601.53;;;5.72;76.13
72636;BME280;60679;48.888;15.544;2022-11-20T12:30:41;95601.31;;;5.73;76.21
72636;BME280;60679;48.888;15.544;2022-11-20T12:44:40;95593.16;;;5.03;77.77
72636;BME280;60679;48.888;15.544;2022-11-20T12:56:00;95584.94;;;5.17;77.91
72636;BME280;60679;48.888;15.544;2022-11-20T12:59:18;95578.66;;;5.69;76.41
72636;BME280;60679;48.888;15.544;2022-11-20T13:01:49;95571.94;;;7.54;73.07
72636;BME280;60679;48.888;15.544;2022-11-20T13:06:54;95556.25;;;11.74;66.06
72636;BME280;60679;48.888;15.544;2022-11-20T13:09:20;95559.22;;;11.23;67.70
72636;BME280;60679;48.888;15.544;2022-11-20T13:17:41;95564.81;;;8.51;72.81
72636;BME280;60679;48.888;15.544;2022-11-20T13:20:17;95562.63;;;7.75;74.34
72636;BME280;60679;48.888;15.544;2022-11-20T13:22:46;95562.75;;;7.44;74.88
72636;BME280;60679;48.888;15.544;2022-11-20T13:25:34;95554.97;;;6.86;76.02
72636;BME280;60679;48.888;15.544;2022-11-20T13:30:48;95538.97;;;6.04;77.38
72636;BME280;60679;48.888;15.544;2022-11-20T13:33:39;95540.78;;;5.59;78.59
72636;BME280;60679;48.888;15.544;2022-11-20T13:36:06;95543.13;;;5.23;79.33
72636;BME280;60679;48.888;15.544;2022-11-20T13:38:52;95538.03;;;4.82;79.05
72636;BME280;60679;48.888;15.544;2022-11-20T13:41:25;95538.81;;;4.30;79.88
72636;BME280;60679;48.888;15.544;2022-11-20T13:44:13;95541.59;;;3.96;80.68
72636;BME280;60679;48.888;15.544;2022-11-20T13:46:46;95532.09;;;3.80;81.08
72636;BME280;60679;48.888;15.544;2022-11-20T13:49:37;95537.38;;;3.67;81.17
72636;BME280;60679;48.888;15.544;2022-11-20T13:52:38;95536.28;;;3.48;81.48
72636;BME280;60679;48.888;15.544;2022-11-20T14:00:28;95540.00;;;3.13;82.21
72636;BME280;60679;48.888;15.544;2022-11-20T14:05:36;95554.66;;;2.96;82.79
72636;BME280;60679;48.888;15.544;2022-11-20T14:08:10;95547.03;;;2.93;82.72
72636;BME280;60679;48.888;15.544;2022-11-20T14:10:38;95546.78;;;2.88;83.30
72636;BME280;60679;48.888;15.544;2022-11-20T14:13:16;95551.03;;;2.82;83.58
72636;BME280;60679;48.888;15.544;2022-11-20T14:15:42;95537.47;;;2.77;83.79
72636;BME280;60679;48.888;15.544;2022-11-20T14:18:20;95544.78;;;2.69;83.83
72636;BME280;60679;48.888;15.544;2022-11-20T14:20:47;95542.88;;;2.63;84.01
72636;BME280;60679;48.888;15.544;2022-11-20T14:23:23;95546.13;;;2.58;84.24
72636;BME280;60679;48.888;15.544;2022-11-20T14:25:49;95546.34;;;2.57;84.49
72636;BME280;60679;48.888;15.544;2022-11-20T14:28:28;95549.81;;;2.57;84.65
72636;BME280;60679;48.888;15.544;2022-11-20T14:30:54;95551.84;;;2.55;84.57